createdAt,value
2023-01-29T00:01:49.183Z,101018.85
2023-01-29T00:06:52.029Z,101007.06
2023-01-29T00:11:54.752Z,100999.38
2023-01-29T00:16:57.484Z,100999.38
2023-01-29T00:22:00.322Z,100988.45
2023-01-29T00:27:03.762Z,100982.48
2023-01-29T00:32:06.584Z,100990.01
2023-01-29T00:37:09.339Z,100992.90
2023-01-29T00:42:30.700Z,100990.01
2023-01-29T00:47:33.852Z,100983.86
2023-01-29T00:52:37.320Z,100984.04
2023-01-29T00:57:40.324Z,100980.27
2023-01-29T01:03:01.650Z,100987.96
2023-01-29T01:08:24.917Z,100986.60
2023-01-29T01:13:28.161Z,100980.12
2023-01-29T01:18:31.429Z,100973.45
2023-01-29T01:23:34.802Z,100963.20
2023-01-29T01:28:37.586Z,100958.77
2023-01-29T01:33:41.385Z,100955.34
2023-01-29T01:38:44.688Z,100966.29
2023-01-29T01:44:06.770Z,100972.26
2023-01-29T01:49:12.011Z,100970.71
2023-01-29T01:54:21.792Z,100977.21
2023-01-29T01:59:24.682Z,100976.02
2023-01-29T02:04:46.337Z,100964.23
2023-01-29T02:09:56.497Z,100950.04
2023-01-29T02:15:00.407Z,100948.00
2023-01-29T02:20:18.112Z,100938.09
2023-01-29T02:25:39.538Z,100924.27
2023-01-29T02:30:53.329Z,100911.09
2023-01-29T02:36:10.225Z,100905.46
2023-01-29T02:41:22.463Z,100892.66
2023-01-29T02:46:47.075Z,100888.73
2023-01-29T02:51:54.945Z,100897.95
2023-01-29T02:57:09.997Z,100897.79
2023-01-29T03:02:18.856Z,100893.70
2023-01-29T03:07:46.717Z,100881.91
2023-01-29T03:12:59.768Z,100880.72
2023-01-29T03:18:11.800Z,100878.83
2023-01-29T03:23:23.823Z,100873.38
2023-01-29T03:28:49.105Z,100874.90
2023-01-29T03:33:59.862Z,100871.50
2023-01-29T03:39:02.597Z,100866.54
2023-01-29T03:44:28.231Z,100861.94
2023-01-29T03:49:49.766Z,100859.20
2023-01-29T03:55:26.883Z,100862.96
2023-01-29T04:00:37.556Z,100861.25
2023-01-29T04:05:45.068Z,100858.35
2023-01-29T04:10:51.193Z,100840.42
2023-01-29T04:15:58.333Z,100828.46
2023-01-29T04:21:01.764Z,100816.84
2023-01-29T04:26:24.850Z,100818.90
2023-01-29T04:31:34.608Z,100811.23
2023-01-29T04:36:49.779Z,100810.70
2023-01-29T04:42:10.624Z,100804.73
2023-01-29T04:47:28.909Z,100794.31
2023-01-29T04:52:50.826Z,100786.63
2023-01-29T04:58:04.493Z,100799.45
2023-01-29T05:03:09.765Z,100792.10
2023-01-29T05:08:17.059Z,100782.86
2023-01-29T05:13:22.202Z,100791.75
2023-01-29T05:18:24.921Z,100790.38
2023-01-29T05:23:27.612Z,100784.22
2023-01-29T05:28:30.689Z,100779.45
2023-01-29T05:33:33.420Z,100776.70
2023-01-29T05:38:36.117Z,100779.45
2023-01-29T05:43:38.834Z,100792.42
2023-01-29T05:48:41.580Z,100790.71
2023-01-29T05:53:44.321Z,100779.09
2023-01-29T05:58:47.439Z,100765.08
2023-01-29T06:03:50.338Z,100769.00
2023-01-29T06:08:53.138Z,100765.40
2023-01-29T06:13:55.791Z,100759.60
2023-01-29T06:18:58.624Z,100768.98
2023-01-29T06:24:01.451Z,100766.08
2023-01-29T06:29:04.176Z,100760.09
2023-01-29T06:34:08.487Z,100771.36
2023-01-29T06:39:11.329Z,100774.77
2023-01-29T06:44:14.072Z,100764.86
2023-01-29T06:49:16.873Z,100764.52
2023-01-29T06:54:19.571Z,100766.02
2023-01-29T06:59:22.291Z,100759.20
2023-01-29T07:04:25.069Z,100757.64
2023-01-29T07:09:27.723Z,100760.37
2023-01-29T07:14:30.468Z,100755.92
2023-01-29T07:19:33.281Z,100762.39
2023-01-29T07:24:36.074Z,100768.88
2023-01-29T07:29:38.871Z,100764.62
2023-01-29T07:34:41.672Z,100762.40
2023-01-29T07:39:44.590Z,100749.42
2023-01-29T07:44:47.274Z,100736.59
2023-01-29T07:49:50.079Z,100720.86
2023-01-29T07:54:52.879Z,100718.09
2023-01-29T07:59:55.685Z,100714.98
2023-01-29T08:04:58.357Z,100715.80
2023-01-29T08:10:01.050Z,100711.15
2023-01-29T08:15:04.402Z,100708.73
2023-01-29T08:20:07.701Z,100711.60
2023-01-29T08:25:10.700Z,100704.22
2023-01-29T08:30:13.919Z,100693.42
2023-01-29T08:35:16.862Z,100689.30
2023-01-29T08:40:19.869Z,100681.56
2023-01-29T08:45:22.768Z,100677.23
2023-01-29T08:50:25.648Z,100671.04
2023-01-29T08:55:29.249Z,100664.85
2023-01-29T09:00:33.391Z,100661.72
2023-01-29T09:05:37.930Z,100668.34
2023-01-29T09:10:40.841Z,100668.41
2023-01-29T09:15:43.550Z,100678.10
2023-01-29T09:20:46.212Z,100679.48
2023-01-29T09:25:49.553Z,100684.29
2023-01-29T09:30:53.617Z,100681.91
2023-01-29T09:35:56.974Z,100671.27
2023-01-29T09:41:14.748Z,100667.19
2023-01-29T09:46:39.462Z,100662.73
2023-01-29T09:51:47.658Z,100658.44
2023-01-29T09:56:55.024Z,100654.27
2023-01-29T10:02:22.909Z,100650.23
2023-01-29T10:07:59.460Z,100646.45
2023-01-29T10:13:20.205Z,100632.60
2023-01-29T10:18:32.104Z,100619.86
2023-01-29T10:23:41.068Z,100618.64
2023-01-29T10:28:47.754Z,100618.38
2023-01-29T10:34:24.039Z,100604.39
2023-01-29T10:39:27.270Z,100599.81
2023-01-29T10:44:39.673Z,100586.08
2023-01-29T10:50:11.504Z,100573.70
2023-01-29T10:55:52.349Z,100570.41
2023-01-29T11:00:55.412Z,100569.89
2023-01-29T11:06:00.927Z,100559.08
2023-01-29T11:11:15.559Z,100551.37
2023-01-29T11:16:18.333Z,100544.88
2023-01-29T11:21:21.611Z,100535.11
2023-01-29T11:26:24.417Z,100529.25
2023-01-29T11:31:35.792Z,100519.99
2023-01-29T11:36:39.829Z,100518.80
2023-01-29T11:41:45.005Z,100506.79
2023-01-29T11:46:49.069Z,100516.84
2023-01-29T11:51:56.095Z,100505.16
2023-01-29T11:56:58.940Z,100500.25
2023-01-29T12:02:26.733Z,100496.83
2023-01-29T12:07:30.862Z,100484.20
2023-01-29T12:12:40.049Z,100479.11
2023-01-29T12:17:50.903Z,100475.59
2023-01-29T12:22:57.945Z,100468.77
2023-01-29T12:28:09.666Z,100463.64
2023-01-29T12:33:41.395Z,100460.18
2023-01-29T12:38:45.222Z,100457.43
2023-01-29T12:43:57.935Z,100465.77
2023-01-29T12:49:05.035Z,100459.40
2023-01-29T12:54:12.221Z,100469.67
2023-01-29T12:59:29.227Z,100493.17
2023-01-29T13:04:44.325Z,100487.35
2023-01-29T13:09:53.427Z,100471.45
2023-01-29T13:15:05.445Z,100455.02
2023-01-29T13:20:30.102Z,100445.30
2023-01-29T13:25:33.248Z,100431.90
2023-01-29T13:30:37.482Z,100421.11
2023-01-29T13:35:43.149Z,100422.27
2023-01-29T13:40:50.812Z,100424.72
2023-01-29T13:45:54.807Z,100416.86
2023-01-29T13:51:02.209Z,100417.38
2023-01-29T13:56:44.155Z,100409.50
2023-01-29T14:01:46.773Z,100411.38
2023-01-29T14:06:54.581Z,100413.60
2023-01-29T14:11:57.463Z,100402.66
2023-01-29T14:17:03.436Z,100414.65
2023-01-29T14:22:06.350Z,100401.66
2023-01-29T14:27:21.639Z,100404.41
2023-01-29T14:32:26.311Z,100400.81
2023-01-29T14:37:34.460Z,100395.17
2023-01-29T14:42:58.615Z,100393.30
2023-01-29T14:48:04.939Z,100394.71
2023-01-29T14:53:35.491Z,100391.98
2023-01-29T14:59:02.521Z,100401.42
2023-01-29T15:04:11.993Z,100405.70
2023-01-29T15:09:35.889Z,100403.47
2023-01-29T15:14:52.453Z,100408.29
2023-01-29T15:19:56.945Z,100410.36
2023-01-29T15:25:20.437Z,100400.96
2023-01-29T15:30:29.354Z,100386.56
2023-01-29T15:35:37.605Z,100376.66
2023-01-29T15:40:40.471Z,100363.45
2023-01-29T15:45:43.408Z,100358.81
2023-01-29T15:50:47.529Z,100363.09
2023-01-29T15:55:51.687Z,100354.31
2023-01-29T16:00:57.232Z,100359.75
2023-01-29T16:06:01.684Z,100353.74
2023-01-29T16:11:07.296Z,100353.73
2023-01-29T16:16:16.274Z,100341.05
2023-01-29T16:21:41.393Z,100339.86
2023-01-29T16:26:47.758Z,100318.79
2023-01-29T16:31:53.045Z,100305.54
2023-01-29T16:36:57.181Z,100296.94
2023-01-29T16:42:22.777Z,100287.16
2023-01-29T16:47:28.903Z,100287.18
2023-01-29T16:52:34.063Z,100284.92
2023-01-29T16:57:39.209Z,100280.84
2023-01-29T17:02:42.032Z,100291.98
2023-01-29T17:07:46.460Z,100294.24
2023-01-29T17:13:05.955Z,100294.64
2023-01-29T17:18:25.044Z,100292.58
2023-01-29T17:23:28.230Z,100296.49
2023-01-29T17:28:31.054Z,100293.23
2023-01-29T17:33:36.313Z,100289.81
2023-01-29T17:38:39.794Z,100295.65
2023-01-29T17:43:44.361Z,100287.96
2023-01-29T17:48:49.247Z,100273.61
2023-01-29T17:53:51.957Z,100261.65
2023-01-29T17:58:54.817Z,100252.95
2023-01-29T18:03:57.530Z,100243.27
2023-01-29T18:09:00.524Z,100240.22
2023-01-29T18:14:13.512Z,100232.17
2023-01-29T18:19:27.285Z,100232.52
2023-01-29T18:24:31.449Z,100220.70
2023-01-29T18:29:34.964Z,100211.98
2023-01-29T18:34:38.328Z,100196.18
2023-01-29T18:39:40.985Z,100190.88
2023-01-29T18:44:43.680Z,100178.42
2023-01-29T18:49:46.481Z,100175.05
2023-01-29T18:54:50.105Z,100158.79
2023-01-29T18:59:52.831Z,100161.52
2023-01-29T19:04:55.627Z,100137.87
2023-01-29T19:09:58.337Z,100115.74
2023-01-29T19:15:01.410Z,100110.79
2023-01-29T19:20:04.956Z,100105.14
2023-01-29T19:25:08.331Z,100105.49
2023-01-29T19:30:12.997Z,100106.31
2023-01-29T19:35:16.033Z,100101.65
2023-01-29T19:40:19.833Z,100096.80
2023-01-29T19:45:49.137Z,100077.38
2023-01-29T19:50:53.687Z,100076.66
2023-01-29T19:55:58.971Z,100067.95
2023-01-29T20:01:07.684Z,100063.17
2023-01-29T20:06:11.439Z,100071.59
2023-01-29T20:11:15.291Z,100048.77
2023-01-29T20:16:19.322Z,100038.86
2023-01-29T20:21:22.610Z,100041.62
2023-01-29T20:26:25.756Z,100039.11
2023-01-29T20:31:28.933Z,100030.98
2023-01-29T20:36:32.021Z,100026.08
2023-01-29T20:41:35.024Z,100014.42
2023-01-29T20:46:38.518Z,99998.14
2023-01-29T20:51:41.217Z,99986.48
2023-01-29T20:56:46.172Z,99976.55
2023-01-29T21:01:50.236Z,99965.05
2023-01-29T21:06:53.000Z,99956.35
2023-01-29T21:11:55.761Z,99932.20
2023-01-29T21:16:58.650Z,99930.95
2023-01-29T21:22:01.418Z,99924.73
2023-01-29T21:27:04.126Z,99912.54
2023-01-29T21:32:07.052Z,99915.58
2023-01-29T21:37:09.917Z,99905.92
2023-01-29T21:42:31.420Z,99901.61
2023-01-29T21:47:34.157Z,99890.92
2023-01-29T21:52:37.062Z,99877.33
2023-01-29T21:57:40.141Z,99869.77
2023-01-29T22:02:43.041Z,99860.90
2023-01-29T22:07:46.182Z,99856.95
2023-01-29T22:12:49.088Z,99850.10
2023-01-29T22:17:51.892Z,99834.33
2023-01-29T22:22:54.689Z,99838.58
2023-01-29T22:27:57.395Z,99822.98
2023-01-29T22:33:00.113Z,99811.20
2023-01-29T22:38:03.891Z,99794.25
2023-01-29T22:43:07.009Z,99796.11
2023-01-29T22:48:09.729Z,99792.16
2023-01-29T22:53:12.527Z,99780.52
2023-01-29T22:58:15.223Z,99772.65
2023-01-29T23:03:17.943Z,99751.23
2023-01-29T23:08:20.929Z,99746.10
2023-01-29T23:13:23.692Z,99731.52
2023-01-29T23:18:26.424Z,99719.52
2023-01-29T23:23:30.669Z,99700.16
2023-01-29T23:28:33.369Z,99691.41
2023-01-29T23:33:36.098Z,99674.30
2023-01-29T23:38:39.432Z,99665.90
2023-01-29T23:43:42.386Z,99652.23
2023-01-29T23:48:45.078Z,99637.52
2023-01-29T23:53:47.778Z,99624.75
2023-01-29T23:58:57.332Z,99609.46
